sensor_id;sensor_type;location;lat;lon;timestamp;P1;durP1;ratioP1;P2;durP2;ratioP2
11827;SDS011;5971;49.646;8.568;2023-05-19T00:01:32;3.10;;;2.05;;
11827;SDS011;5971;49.646;8.568;2023-05-19T00:04:37;3.38;;;1.88;;
11827;SDS011;5971;49.646;8.568;2023-05-19T00:07:40;6.07;;;2.10;;
11827;SDS011;5971;49.646;8.568;2023-05-19T00:10:43;4.25;;;2.22;;
11827;SDS011;5971;49.646;8.568;2023-05-19T00:13:44;4.82;;;1.95;;
11827;SDS011;5971;49.646;8.568;2023-05-19T00:16:48;3.28;;;1.60;;
11827;SDS011;5971;49.646;8.568;2023-05-19T00:19:49;3.83;;;1.63;;
11827;SDS011;5971;49.646;8.568;2023-05-19T00:22:52;4.25;;;1.83;;
11827;SDS011;5971;49.646;8.568;2023-05-19T00:25:53;4.72;;;1.65;;
11827;SDS011;5971;49.646;8.568;2023-05-19T00:28:55;4.13;;;2.53;;
11827;SDS011;5971;49.646;8.568;2023-05-19T00:31:56;4.72;;;2.40;;
11827;SDS011;5971;49.646;8.568;2023-05-19T00:34:58;4.00;;;1.73;;
11827;SDS011;5971;49.646;8.568;2023-05-19T00:37:59;4.47;;;1.77;;
11827;SDS011;5971;49.646;8.568;2023-05-19T00:41:01;5.75;;;2.50;;
11827;SDS011;5971;49.646;8.568;2023-05-19T00:44:02;6.07;;;2.80;;
11827;SDS011;5971;49.646;8.568;2023-05-19T00:47:04;3.03;;;1.83;;
11827;SDS011;5971;49.646;8.568;2023-05-19T00:50:06;3.08;;;1.85;;
11827;SDS011;5971;49.646;8.568;2023-05-19T00:53:07;4.03;;;1.67;;
11827;SDS011;5971;49.646;8.568;2023-05-19T00:56:08;3.35;;;1.80;;
11827;SDS011;5971;49.646;8.568;2023-05-19T00:59:10;4.82;;;1.90;;
11827;SDS011;5971;49.646;8.568;2023-05-19T01:02:11;4.13;;;1.75;;
11827;SDS011;5971;49.646;8.568;2023-05-19T01:05:13;3.70;;;1.70;;
11827;SDS011;5971;49.646;8.568;2023-05-19T01:08:14;4.38;;;2.13;;
11827;SDS011;5971;49.646;8.568;2023-05-19T01:11:16;3.50;;;1.73;;
11827;SDS011;5971;49.646;8.568;2023-05-19T01:14:18;3.47;;;1.80;;
11827;SDS011;5971;49.646;8.568;2023-05-19T01:17:22;4.75;;;1.88;;
11827;SDS011;5971;49.646;8.568;2023-05-19T01:20:30;4.32;;;2.20;;
11827;SDS011;5971;49.646;8.568;2023-05-19T01:23:41;4.57;;;2.33;;
11827;SDS011;5971;49.646;8.568;2023-05-19T01:33:07;6.20;;;2.13;;
11827;SDS011;5971;49.646;8.568;2023-05-19T01:36:08;5.38;;;2.40;;
11827;SDS011;5971;49.646;8.568;2023-05-19T01:39:10;5.20;;;2.13;;
11827;SDS011;5971;49.646;8.568;2023-05-19T01:42:13;5.43;;;1.73;;
11827;SDS011;5971;49.646;8.568;2023-05-19T01:45:14;6.15;;;2.15;;
11827;SDS011;5971;49.646;8.568;2023-05-19T01:48:16;4.80;;;1.80;;
11827;SDS011;5971;49.646;8.568;2023-05-19T01:51:18;2.72;;;1.90;;
11827;SDS011;5971;49.646;8.568;2023-05-19T01:54:19;4.47;;;1.80;;
11827;SDS011;5971;49.646;8.568;2023-05-19T01:57:29;3.47;;;1.77;;
11827;SDS011;5971;49.646;8.568;2023-05-19T02:00:40;3.33;;;1.92;;
11827;SDS011;5971;49.646;8.568;2023-05-19T02:03:47;3.83;;;1.85;;
11827;SDS011;5971;49.646;8.568;2023-05-19T02:06:57;4.20;;;2.03;;
11827;SDS011;5971;49.646;8.568;2023-05-19T02:10:05;3.67;;;1.98;;
11827;SDS011;5971;49.646;8.568;2023-05-19T02:13:07;5.55;;;1.80;;
11827;SDS011;5971;49.646;8.568;2023-05-19T02:16:09;5.72;;;2.20;;
11827;SDS011;5971;49.646;8.568;2023-05-19T02:19:24;5.03;;;2.15;;
11827;SDS011;5971;49.646;8.568;2023-05-19T02:22:26;4.20;;;1.75;;
11827;SDS011;5971;49.646;8.568;2023-05-19T02:25:27;8.13;;;2.22;;
11827;SDS011;5971;49.646;8.568;2023-05-19T02:28:28;3.70;;;2.20;;
11827;SDS011;5971;49.646;8.568;2023-05-19T02:31:30;4.43;;;2.10;;
11827;SDS011;5971;49.646;8.568;2023-05-19T02:34:31;4.60;;;2.22;;
11827;SDS011;5971;49.646;8.568;2023-05-19T02:37:32;4.55;;;2.55;;
11827;SDS011;5971;49.646;8.568;2023-05-19T02:40:35;6.10;;;2.33;;
11827;SDS011;5971;49.646;8.568;2023-05-19T02:43:36;4.68;;;2.22;;
11827;SDS011;5971;49.646;8.568;2023-05-19T02:46:38;5.57;;;2.70;;
11827;SDS011;5971;49.646;8.568;2023-05-19T02:49:39;5.85;;;2.53;;
11827;SDS011;5971;49.646;8.568;2023-05-19T02:52:40;5.05;;;3.05;;
11827;SDS011;5971;49.646;8.568;2023-05-19T02:55:42;5.32;;;2.72;;
11827;SDS011;5971;49.646;8.568;2023-05-19T02:58:43;5.88;;;2.83;;
11827;SDS011;5971;49.646;8.568;2023-05-19T03:01:45;4.90;;;2.83;;
11827;SDS011;5971;49.646;8.568;2023-05-19T03:04:47;5.30;;;2.97;;
11827;SDS011;5971;49.646;8.568;2023-05-19T03:07:49;3.70;;;2.25;;
11827;SDS011;5971;49.646;8.568;2023-05-19T03:10:50;5.30;;;3.08;;
11827;SDS011;5971;49.646;8.568;2023-05-19T03:13:51;4.15;;;2.53;;
11827;SDS011;5971;49.646;8.568;2023-05-19T03:16:52;7.07;;;2.53;;
11827;SDS011;5971;49.646;8.568;2023-05-19T03:19:56;5.97;;;3.05;;
11827;SDS011;5971;49.646;8.568;2023-05-19T03:22:57;4.53;;;2.80;;
11827;SDS011;5971;49.646;8.568;2023-05-19T03:25:58;4.43;;;2.85;;
11827;SDS011;5971;49.646;8.568;2023-05-19T03:29:00;6.50;;;2.83;;
11827;SDS011;5971;49.646;8.568;2023-05-19T03:32:01;5.47;;;2.72;;
11827;SDS011;5971;49.646;8.568;2023-05-19T03:35:03;4.75;;;2.78;;
11827;SDS011;5971;49.646;8.568;2023-05-19T03:38:05;6.72;;;3.00;;
11827;SDS011;5971;49.646;8.568;2023-05-19T03:41:06;4.78;;;2.80;;
11827;SDS011;5971;49.646;8.568;2023-05-19T03:44:08;4.38;;;2.70;;
11827;SDS011;5971;49.646;8.568;2023-05-19T03:47:09;5.85;;;3.08;;
11827;SDS011;5971;49.646;8.568;2023-05-19T03:50:11;6.22;;;3.30;;
11827;SDS011;5971;49.646;8.568;2023-05-19T03:53:12;6.75;;;3.28;;
11827;SDS011;5971;49.646;8.568;2023-05-19T03:56:13;5.53;;;2.90;;
11827;SDS011;5971;49.646;8.568;2023-05-19T03:59:16;4.35;;;3.50;;
11827;SDS011;5971;49.646;8.568;2023-05-19T04:02:18;5.97;;;3.30;;
11827;SDS011;5971;49.646;8.568;2023-05-19T04:05:19;5.88;;;3.10;;
11827;SDS011;5971;49.646;8.568;2023-05-19T04:08:21;9.93;;;3.38;;
11827;SDS011;5971;49.646;8.568;2023-05-19T04:11:22;6.60;;;3.35;;
11827;SDS011;5971;49.646;8.568;2023-05-19T04:14:23;6.63;;;4.05;;
11827;SDS011;5971;49.646;8.568;2023-05-19T04:17:25;6.22;;;3.67;;
11827;SDS011;5971;49.646;8.568;2023-05-19T04:20:26;5.95;;;3.42;;
11827;SDS011;5971;49.646;8.568;2023-05-19T04:23:28;6.60;;;3.40;;
11827;SDS011;5971;49.646;8.568;2023-05-19T04:26:29;5.97;;;3.03;;
11827;SDS011;5971;49.646;8.568;2023-05-19T04:29:31;6.82;;;3.58;;
11827;SDS011;5971;49.646;8.568;2023-05-19T04:32:32;5.38;;;3.30;;
11827;SDS011;5971;49.646;8.568;2023-05-19T04:35:34;6.15;;;3.53;;
11827;SDS011;5971;49.646;8.568;2023-05-19T04:38:35;5.22;;;2.90;;
11827;SDS011;5971;49.646;8.568;2023-05-19T04:41:37;4.13;;;2.83;;
11827;SDS011;5971;49.646;8.568;2023-05-19T04:44:40;5.75;;;2.92;;
11827;SDS011;5971;49.646;8.568;2023-05-19T04:47:42;5.10;;;2.80;;
11827;SDS011;5971;49.646;8.568;2023-05-19T04:50:44;5.82;;;3.33;;
11827;SDS011;5971;49.646;8.568;2023-05-19T04:53:45;6.22;;;3.38;;
11827;SDS011;5971;49.646;8.568;2023-05-19T04:56:47;6.85;;;4.10;;
11827;SDS011;5971;49.646;8.568;2023-05-19T04:59:48;5.63;;;2.97;;
11827;SDS011;5971;49.646;8.568;2023-05-19T05:02:49;5.03;;;3.17;;
11827;SDS011;5971;49.646;8.568;2023-05-19T05:05:51;7.25;;;3.13;;
11827;SDS011;5971;49.646;8.568;2023-05-19T05:08:52;4.97;;;2.85;;
11827;SDS011;5971;49.646;8.568;2023-05-19T05:11:54;6.05;;;3.15;;
11827;SDS011;5971;49.646;8.568;2023-05-19T05:14:55;5.70;;;3.28;;
11827;SDS011;5971;49.646;8.568;2023-05-19T05:17:57;8.60;;;2.88;;
11827;SDS011;5971;49.646;8.568;2023-05-19T05:20:59;5.63;;;3.20;;
11827;SDS011;5971;49.646;8.568;2023-05-19T05:24:00;7.15;;;3.08;;
11827;SDS011;5971;49.646;8.568;2023-05-19T05:27:01;6.63;;;2.70;;
11827;SDS011;5971;49.646;8.568;2023-05-19T05:30:04;8.98;;;2.83;;
11827;SDS011;5971;49.646;8.568;2023-05-19T05:33:05;5.47;;;2.60;;
11827;SDS011;5971;49.646;8.568;2023-05-19T05:36:07;4.07;;;2.60;;
11827;SDS011;5971;49.646;8.568;2023-05-19T05:39:09;5.50;;;3.05;;
11827;SDS011;5971;49.646;8.568;2023-05-19T05:42:10;4.35;;;2.97;;
11827;SDS011;5971;49.646;8.568;2023-05-19T05:45:12;5.63;;;3.20;;
11827;SDS011;5971;49.646;8.568;2023-05-19T05:48:13;5.20;;;2.38;;
11827;SDS011;5971;49.646;8.568;2023-05-19T05:51:15;4.38;;;2.70;;
11827;SDS011;5971;49.646;8.568;2023-05-19T05:54:17;6.50;;;2.45;;
11827;SDS011;5971;49.646;8.568;2023-05-19T05:57:19;4.90;;;2.83;;
11827;SDS011;5971;49.646;8.568;2023-05-19T06:00:20;5.40;;;2.35;;
11827;SDS011;5971;49.646;8.568;2023-05-19T06:03:22;5.75;;;2.38;;
11827;SDS011;5971;49.646;8.568;2023-05-19T06:06:26;4.32;;;2.20;;
11827;SDS011;5971;49.646;8.568;2023-05-19T06:09:27;3.33;;;2.13;;
11827;SDS011;5971;49.646;8.568;2023-05-19T06:12:30;4.35;;;2.33;;
11827;SDS011;5971;49.646;8.568;2023-05-19T06:15:31;4.22;;;2.15;;
11827;SDS011;5971;49.646;8.568;2023-05-19T06:18:33;5.22;;;2.95;;
11827;SDS011;5971;49.646;8.568;2023-05-19T06:21:34;4.28;;;2.47;;
11827;SDS011;5971;49.646;8.568;2023-05-19T06:24:35;4.90;;;3.20;;
11827;SDS011;5971;49.646;8.568;2023-05-19T06:27:39;3.78;;;2.25;;
11827;SDS011;5971;49.646;8.568;2023-05-19T06:30:41;5.13;;;2.97;;
11827;SDS011;5971;49.646;8.568;2023-05-19T06:33:42;3.88;;;2.45;;
11827;SDS011;5971;49.646;8.568;2023-05-19T06:36:43;3.88;;;2.35;;
11827;SDS011;5971;49.646;8.568;2023-05-19T06:39:45;4.93;;;2.55;;
11827;SDS011;5971;49.646;8.568;2023-05-19T06:42:46;4.38;;;2.60;;
11827;SDS011;5971;49.646;8.568;2023-05-19T06:45:47;5.25;;;2.75;;
11827;SDS011;5971;49.646;8.568;2023-05-19T06:48:49;3.20;;;1.75;;
11827;SDS011;5971;49.646;8.568;2023-05-19T06:51:50;5.30;;;1.80;;
11827;SDS011;5971;49.646;8.568;2023-05-19T06:54:51;5.05;;;2.47;;
11827;SDS011;5971;49.646;8.568;2023-05-19T06:57:53;4.38;;;2.33;;
11827;SDS011;5971;49.646;8.568;2023-05-19T07:00:54;4.05;;;2.10;;
11827;SDS011;5971;49.646;8.568;2023-05-19T07:03:55;6.13;;;2.60;;
11827;SDS011;5971;49.646;8.568;2023-05-19T07:06:57;4.28;;;2.20;;
11827;SDS011;5971;49.646;8.568;2023-05-19T07:09:58;5.45;;;1.85;;
11827;SDS011;5971;49.646;8.568;2023-05-19T07:13:00;4.68;;;1.95;;
11827;SDS011;5971;49.646;8.568;2023-05-19T07:16:01;4.57;;;1.98;;
11827;SDS011;5971;49.646;8.568;2023-05-19T07:19:02;4.72;;;2.25;;
11827;SDS011;5971;49.646;8.568;2023-05-19T07:22:04;4.38;;;1.80;;
11827;SDS011;5971;49.646;8.568;2023-05-19T07:25:06;3.50;;;1.85;;
11827;SDS011;5971;49.646;8.568;2023-05-19T07:28:07;4.75;;;1.75;;
11827;SDS011;5971;49.646;8.568;2023-05-19T07:31:09;4.18;;;2.13;;
11827;SDS011;5971;49.646;8.568;2023-05-19T07:34:10;2.97;;;1.40;;
11827;SDS011;5971;49.646;8.568;2023-05-19T07:37:11;4.82;;;1.55;;
11827;SDS011;5971;49.646;8.568;2023-05-19T07:40:13;3.50;;;1.77;;
11827;SDS011;5971;49.646;8.568;2023-05-19T07:43:14;3.08;;;1.55;;
11827;SDS011;5971;49.646;8.568;2023-05-19T07:46:16;3.83;;;1.67;;
11827;SDS011;5971;49.646;8.568;2023-05-19T07:49:17;4.53;;;2.00;;
11827;SDS011;5971;49.646;8.568;2023-05-19T07:52:18;3.08;;;1.27;;
11827;SDS011;5971;49.646;8.568;2023-05-19T07:55:20;4.80;;;1.80;;
11827;SDS011;5971;49.646;8.568;2023-05-19T07:58:23;3.72;;;1.67;;
11827;SDS011;5971;49.646;8.568;2023-05-19T08:01:24;4.20;;;1.73;;
11827;SDS011;5971;49.646;8.568;2023-05-19T08:04:26;4.13;;;1.50;;
11827;SDS011;5971;49.646;8.568;2023-05-19T08:07:27;4.35;;;1.55;;
11827;SDS011;5971;49.646;8.568;2023-05-19T08:10:29;3.50;;;2.20;;
11827;SDS011;5971;49.646;8.568;2023-05-19T08:13:31;3.85;;;1.30;;
11827;SDS011;5971;49.646;8.568;2023-05-19T08:16:32;6.03;;;1.70;;
11827;SDS011;5971;49.646;8.568;2023-05-19T08:19:34;3.00;;;1.30;;
11827;SDS011;5971;49.646;8.568;2023-05-19T08:22:35;5.15;;;1.70;;
11827;SDS011;5971;49.646;8.568;2023-05-19T08:25:36;4.05;;;1.40;;
11827;SDS011;5971;49.646;8.568;2023-05-19T08:28:38;3.88;;;1.35;;
11827;SDS011;5971;49.646;8.568;2023-05-19T08:31:39;3.58;;;1.58;;
11827;SDS011;5971;49.646;8.568;2023-05-19T08:34:41;4.13;;;1.45;;
11827;SDS011;5971;49.646;8.568;2023-05-19T08:37:42;4.07;;;1.48;;
11827;SDS011;5971;49.646;8.568;2023-05-19T08:40:45;4.38;;;1.40;;
11827;SDS011;5971;49.646;8.568;2023-05-19T08:43:46;3.75;;;1.90;;
11827;SDS011;5971;49.646;8.568;2023-05-19T08:46:48;3.38;;;1.55;;
11827;SDS011;5971;49.646;8.568;2023-05-19T08:49:51;4.32;;;1.45;;
11827;SDS011;5971;49.646;8.568;2023-05-19T08:56:33;4.60;;;1.80;;
11827;SDS011;5971;49.646;8.568;2023-05-19T08:59:34;2.95;;;1.67;;
11827;SDS011;5971;49.646;8.568;2023-05-19T09:02:36;3.53;;;1.50;;
11827;SDS011;5971;49.646;8.568;2023-05-19T09:05:55;3.28;;;1.35;;
11827;SDS011;5971;49.646;8.568;2023-05-19T09:08:57;3.08;;;1.42;;
11827;SDS011;5971;49.646;8.568;2023-05-19T09:11:58;4.45;;;1.90;;
11827;SDS011;5971;49.646;8.568;2023-05-19T09:14:59;4.45;;;1.85;;
11827;SDS011;5971;49.646;8.568;2023-05-19T09:18:09;3.00;;;1.80;;
11827;SDS011;5971;49.646;8.568;2023-05-19T09:21:11;3.60;;;1.40;;
11827;SDS011;5971;49.646;8.568;2023-05-19T09:24:13;3.83;;;1.50;;
11827;SDS011;5971;49.646;8.568;2023-05-19T09:27:14;3.72;;;1.67;;
11827;SDS011;5971;49.646;8.568;2023-05-19T09:30:22;4.30;;;1.52;;
11827;SDS011;5971;49.646;8.568;2023-05-19T09:33:24;4.05;;;1.67;;
11827;SDS011;5971;49.646;8.568;2023-05-19T09:36:25;3.53;;;2.35;;
11827;SDS011;5971;49.646;8.568;2023-05-19T09:39:28;5.30;;;1.70;;
11827;SDS011;5971;49.646;8.568;2023-05-19T09:42:30;3.30;;;1.42;;
11827;SDS011;5971;49.646;8.568;2023-05-19T09:45:36;3.58;;;1.60;;
11827;SDS011;5971;49.646;8.568;2023-05-19T09:48:38;3.88;;;1.52;;
11827;SDS011;5971;49.646;8.568;2023-05-19T09:51:42;4.03;;;1.60;;
11827;SDS011;5971;49.646;8.568;2023-05-19T09:54:44;2.85;;;1.45;;
11827;SDS011;5971;49.646;8.568;2023-05-19T09:57:45;5.22;;;1.75;;
11827;SDS011;5971;49.646;8.568;2023-05-19T10:00:46;3.28;;;1.35;;
11827;SDS011;5971;49.646;8.568;2023-05-19T10:03:48;3.85;;;1.52;;
11827;SDS011;5971;49.646;8.568;2023-05-19T10:06:50;3.85;;;1.80;;
11827;SDS011;5971;49.646;8.568;2023-05-19T10:09:53;4.45;;;1.92;;
11827;SDS011;5971;49.646;8.568;2023-05-19T10:12:58;4.13;;;1.90;;
11827;SDS011;5971;49.646;8.568;2023-05-19T10:16:00;4.35;;;1.65;;
11827;SDS011;5971;49.646;8.568;2023-05-19T10:19:02;4.20;;;1.90;;
11827;SDS011;5971;49.646;8.568;2023-05-19T10:22:04;4.65;;;1.70;;
11827;SDS011;5971;49.646;8.568;2023-05-19T10:25:06;4.90;;;1.52;;
11827;SDS011;5971;49.646;8.568;2023-05-19T10:28:10;3.38;;;1.80;;
11827;SDS011;5971;49.646;8.568;2023-05-19T10:31:15;3.42;;;1.70;;
11827;SDS011;5971;49.646;8.568;2023-05-19T10:40:49;4.00;;;1.70;;
11827;SDS011;5971;49.646;8.568;2023-05-19T10:43:53;4.13;;;1.52;;
11827;SDS011;5971;49.646;8.568;2023-05-19T10:46:56;4.07;;;1.60;;
11827;SDS011;5971;49.646;8.568;2023-05-19T10:49:59;3.90;;;1.90;;
11827;SDS011;5971;49.646;8.568;2023-05-19T10:53:01;5.70;;;1.70;;
11827;SDS011;5971;49.646;8.568;2023-05-19T10:56:02;3.63;;;1.50;;
11827;SDS011;5971;49.646;8.568;2023-05-19T10:59:04;2.58;;;1.52;;
11827;SDS011;5971;49.646;8.568;2023-05-19T11:02:06;4.97;;;1.92;;
11827;SDS011;5971;49.646;8.568;2023-05-19T11:08:10;4.53;;;1.90;;
11827;SDS011;5971;49.646;8.568;2023-05-19T11:11:13;3.33;;;1.73;;
11827;SDS011;5971;49.646;8.568;2023-05-19T11:14:17;4.22;;;1.90;;
11827;SDS011;5971;49.646;8.568;2023-05-19T11:17:19;6.05;;;1.60;;
11827;SDS011;5971;49.646;8.568;2023-05-19T11:20:24;5.88;;;1.63;;
11827;SDS011;5971;49.646;8.568;2023-05-19T11:23:26;3.42;;;1.70;;
11827;SDS011;5971;49.646;8.568;2023-05-19T11:26:45;4.53;;;1.70;;
11827;SDS011;5971;49.646;8.568;2023-05-19T11:29:47;2.75;;;1.48;;
11827;SDS011;5971;49.646;8.568;2023-05-19T11:32:49;4.60;;;1.65;;
11827;SDS011;5971;49.646;8.568;2023-05-19T11:35:50;3.65;;;1.38;;
11827;SDS011;5971;49.646;8.568;2023-05-19T11:38:53;3.10;;;1.40;;
11827;SDS011;5971;49.646;8.568;2023-05-19T11:41:54;2.47;;;1.20;;
11827;SDS011;5971;49.646;8.568;2023-05-19T11:44:56;3.30;;;1.50;;
11827;SDS011;5971;49.646;8.568;2023-05-19T11:47:57;4.53;;;1.55;;
11827;SDS011;5971;49.646;8.568;2023-05-19T11:51:04;3.58;;;1.60;;
11827;SDS011;5971;49.646;8.568;2023-05-19T11:54:06;3.22;;;1.50;;
11827;SDS011;5971;49.646;8.568;2023-05-19T11:57:08;2.70;;;1.50;;
11827;SDS011;5971;49.646;8.568;2023-05-19T12:00:11;4.60;;;1.60;;
11827;SDS011;5971;49.646;8.568;2023-05-19T12:03:12;3.63;;;1.60;;
11827;SDS011;5971;49.646;8.568;2023-05-19T12:06:14;6.03;;;1.80;;
11827;SDS011;5971;49.646;8.568;2023-05-19T12:09:18;3.85;;;1.60;;
11827;SDS011;5971;49.646;8.568;2023-05-19T12:12:19;3.90;;;1.63;;
11827;SDS011;5971;49.646;8.568;2023-05-19T12:15:21;3.65;;;1.60;;
11827;SDS011;5971;49.646;8.568;2023-05-19T12:18:26;5.20;;;1.85;;
11827;SDS011;5971;49.646;8.568;2023-05-19T12:21:27;4.65;;;1.67;;
11827;SDS011;5971;49.646;8.568;2023-05-19T12:24:34;3.10;;;1.67;;
11827;SDS011;5971;49.646;8.568;2023-05-19T12:27:36;4.53;;;1.77;;
11827;SDS011;5971;49.646;8.568;2023-05-19T12:30:38;3.85;;;1.52;;
11827;SDS011;5971;49.646;8.568;2023-05-19T12:33:39;4.28;;;1.60;;
11827;SDS011;5971;49.646;8.568;2023-05-19T12:36:40;4.20;;;1.50;;
11827;SDS011;5971;49.646;8.568;2023-05-19T12:39:42;3.78;;;1.40;;
11827;SDS011;5971;49.646;8.568;2023-05-19T12:42:44;3.15;;;1.55;;
11827;SDS011;5971;49.646;8.568;2023-05-19T12:45:45;3.63;;;1.45;;
11827;SDS011;5971;49.646;8.568;2023-05-19T12:48:46;4.10;;;1.50;;
11827;SDS011;5971;49.646;8.568;2023-05-19T12:51:51;3.55;;;1.67;;
11827;SDS011;5971;49.646;8.568;2023-05-19T12:54:57;3.22;;;1.33;;
11827;SDS011;5971;49.646;8.568;2023-05-19T12:57:59;4.57;;;1.45;;
11827;SDS011;5971;49.646;8.568;2023-05-19T13:01:06;3.33;;;1.83;;
11827;SDS011;5971;49.646;8.568;2023-05-19T13:04:08;4.13;;;1.70;;
11827;SDS011;5971;49.646;8.568;2023-05-19T13:07:10;4.28;;;2.20;;
11827;SDS011;5971;49.646;8.568;2023-05-19T13:10:11;3.40;;;1.67;;
11827;SDS011;5971;49.646;8.568;2023-05-19T13:13:12;6.15;;;2.08;;
11827;SDS011;5971;49.646;8.568;2023-05-19T13:16:14;3.72;;;1.60;;
11827;SDS011;5971;49.646;8.568;2023-05-19T13:19:17;3.95;;;1.60;;
11827;SDS011;5971;49.646;8.568;2023-05-19T13:22:26;3.72;;;1.60;;
11827;SDS011;5971;49.646;8.568;2023-05-19T13:25:27;3.70;;;1.48;;
11827;SDS011;5971;49.646;8.568;2023-05-19T13:28:28;3.55;;;1.95;;
11827;SDS011;5971;49.646;8.568;2023-05-19T13:31:30;2.30;;;1.10;;
11827;SDS011;5971;49.646;8.568;2023-05-19T13:34:31;2.45;;;1.10;;
11827;SDS011;5971;49.646;8.568;2023-05-19T13:37:33;2.72;;;1.40;;
11827;SDS011;5971;49.646;8.568;2023-05-19T13:40:35;2.83;;;1.33;;
11827;SDS011;5971;49.646;8.568;2023-05-19T13:43:36;3.22;;;1.90;;
11827;SDS011;5971;49.646;8.568;2023-05-19T13:46:38;2.55;;;1.50;;
11827;SDS011;5971;49.646;8.568;2023-05-19T13:49:46;3.03;;;1.30;;
11827;SDS011;5971;49.646;8.568;2023-05-19T13:52:47;2.20;;;1.20;;
11827;SDS011;5971;49.646;8.568;2023-05-19T13:55:49;3.45;;;1.30;;
11827;SDS011;5971;49.646;8.568;2023-05-19T13:58:53;2.55;;;1.20;;
11827;SDS011;5971;49.646;8.568;2023-05-19T14:01:55;2.58;;;1.40;;
11827;SDS011;5971;49.646;8.568;2023-05-19T14:04:56;2.30;;;1.27;;
11827;SDS011;5971;49.646;8.568;2023-05-19T14:07:58;3.28;;;1.30;;
11827;SDS011;5971;49.646;8.568;2023-05-19T14:14:02;3.20;;;1.33;;
11827;SDS011;5971;49.646;8.568;2023-05-19T14:17:04;3.47;;;1.30;;
11827;SDS011;5971;49.646;8.568;2023-05-19T14:20:05;3.05;;;1.40;;
11827;SDS011;5971;49.646;8.568;2023-05-19T14:23:07;2.92;;;1.50;;
11827;SDS011;5971;49.646;8.568;2023-05-19T14:26:08;3.05;;;1.25;;
11827;SDS011;5971;49.646;8.568;2023-05-19T14:29:10;3.08;;;1.30;;
11827;SDS011;5971;49.646;8.568;2023-05-19T14:32:11;2.35;;;1.20;;
11827;SDS011;5971;49.646;8.568;2023-05-19T14:35:13;2.30;;;1.38;;
11827;SDS011;5971;49.646;8.568;2023-05-19T14:38:14;2.70;;;1.40;;
11827;SDS011;5971;49.646;8.568;2023-05-19T14:41:15;2.20;;;1.23;;
11827;SDS011;5971;49.646;8.568;2023-05-19T14:44:17;2.88;;;1.55;;
11827;SDS011;5971;49.646;8.568;2023-05-19T14:47:18;3.15;;;1.70;;
11827;SDS011;5971;49.646;8.568;2023-05-19T14:50:20;2.72;;;1.40;;
11827;SDS011;5971;49.646;8.568;2023-05-19T14:53:21;3.60;;;1.60;;
11827;SDS011;5971;49.646;8.568;2023-05-19T14:56:22;3.05;;;2.15;;
11827;SDS011;5971;49.646;8.568;2023-05-19T14:59:24;3.85;;;1.52;;
11827;SDS011;5971;49.646;8.568;2023-05-19T15:02:25;3.67;;;2.25;;
11827;SDS011;5971;49.646;8.568;2023-05-19T15:05:29;3.30;;;1.63;;
11827;SDS011;5971;49.646;8.568;2023-05-19T15:08:30;3.60;;;1.60;;
11827;SDS011;5971;49.646;8.568;2023-05-19T15:11:32;2.60;;;1.30;;
11827;SDS011;5971;49.646;8.568;2023-05-19T15:14:33;2.92;;;1.73;;
11827;SDS011;5971;49.646;8.568;2023-05-19T15:17:35;3.17;;;1.40;;
11827;SDS011;5971;49.646;8.568;2023-05-19T15:20:36;3.22;;;1.60;;
11827;SDS011;5971;49.646;8.568;2023-05-19T15:23:37;2.40;;;1.40;;
11827;SDS011;5971;49.646;8.568;2023-05-19T15:26:39;2.55;;;1.50;;
11827;SDS011;5971;49.646;8.568;2023-05-19T15:29:40;2.15;;;1.23;;
11827;SDS011;5971;49.646;8.568;2023-05-19T15:32:42;3.38;;;2.00;;
11827;SDS011;5971;49.646;8.568;2023-05-19T15:35:43;2.70;;;1.50;;
11827;SDS011;5971;49.646;8.568;2023-05-19T15:38:44;2.75;;;1.70;;
11827;SDS011;5971;49.646;8.568;2023-05-19T15:41:46;2.45;;;1.45;;
11827;SDS011;5971;49.646;8.568;2023-05-19T15:44:47;2.50;;;1.50;;
11827;SDS011;5971;49.646;8.568;2023-05-19T15:47:49;1.98;;;1.20;;
11827;SDS011;5971;49.646;8.568;2023-05-19T15:50:50;3.22;;;1.50;;
11827;SDS011;5971;49.646;8.568;2023-05-19T15:53:52;2.40;;;1.45;;
11827;SDS011;5971;49.646;8.568;2023-05-19T15:56:53;3.05;;;1.50;;
11827;SDS011;5971;49.646;8.568;2023-05-19T15:59:54;2.65;;;1.58;;
11827;SDS011;5971;49.646;8.568;2023-05-19T16:02:56;2.72;;;1.40;;
11827;SDS011;5971;49.646;8.568;2023-05-19T16:05:57;2.95;;;1.77;;
11827;SDS011;5971;49.646;8.568;2023-05-19T16:08:59;3.45;;;1.73;;
11827;SDS011;5971;49.646;8.568;2023-05-19T16:12:01;3.58;;;2.03;;
11827;SDS011;5971;49.646;8.568;2023-05-19T16:15:02;3.70;;;2.20;;
11827;SDS011;5971;49.646;8.568;2023-05-19T16:18:04;4.28;;;2.20;;
11827;SDS011;5971;49.646;8.568;2023-05-19T16:21:05;4.70;;;3.25;;
11827;SDS011;5971;49.646;8.568;2023-05-19T16:24:07;3.15;;;1.70;;
11827;SDS011;5971;49.646;8.568;2023-05-19T16:27:08;4.43;;;2.08;;
11827;SDS011;5971;49.646;8.568;2023-05-19T16:30:09;5.03;;;2.38;;
11827;SDS011;5971;49.646;8.568;2023-05-19T16:33:11;3.60;;;2.22;;
11827;SDS011;5971;49.646;8.568;2023-05-19T16:36:12;3.70;;;2.30;;
11827;SDS011;5971;49.646;8.568;2023-05-19T16:39:14;6.25;;;3.15;;
11827;SDS011;5971;49.646;8.568;2023-05-19T16:42:16;4.80;;;3.70;;
11827;SDS011;5971;49.646;8.568;2023-05-19T16:45:17;7.38;;;3.55;;
11827;SDS011;5971;49.646;8.568;2023-05-19T16:48:18;4.35;;;2.83;;
11827;SDS011;5971;49.646;8.568;2023-05-19T16:51:20;5.25;;;2.78;;
11827;SDS011;5971;49.646;8.568;2023-05-19T16:54:21;6.40;;;2.55;;
11827;SDS011;5971;49.646;8.568;2023-05-19T16:57:23;3.17;;;2.03;;
11827;SDS011;5971;49.646;8.568;2023-05-19T17:00:24;4.75;;;2.75;;
11827;SDS011;5971;49.646;8.568;2023-05-19T17:03:27;4.95;;;2.85;;
11827;SDS011;5971;49.646;8.568;2023-05-19T17:06:30;3.67;;;2.63;;
11827;SDS011;5971;49.646;8.568;2023-05-19T17:09:32;4.22;;;3.10;;
11827;SDS011;5971;49.646;8.568;2023-05-19T17:12:33;3.65;;;2.47;;
11827;SDS011;5971;49.646;8.568;2023-05-19T17:15:34;3.17;;;2.35;;
11827;SDS011;5971;49.646;8.568;2023-05-19T17:18:36;4.38;;;3.38;;
11827;SDS011;5971;49.646;8.568;2023-05-19T17:21:38;3.47;;;2.20;;
11827;SDS011;5971;49.646;8.568;2023-05-19T17:24:39;3.95;;;2.35;;
11827;SDS011;5971;49.646;8.568;2023-05-19T17:27:41;5.57;;;2.92;;
11827;SDS011;5971;49.646;8.568;2023-05-19T17:30:42;3.15;;;2.05;;
11827;SDS011;5971;49.646;8.568;2023-05-19T17:33:43;3.90;;;2.58;;
11827;SDS011;5971;49.646;8.568;2023-05-19T17:36:45;4.00;;;2.10;;
11827;SDS011;5971;49.646;8.568;2023-05-19T17:39:46;4.28;;;2.88;;
11827;SDS011;5971;49.646;8.568;2023-05-19T17:42:47;3.45;;;2.60;;
11827;SDS011;5971;49.646;8.568;2023-05-19T17:45:49;3.90;;;2.55;;
11827;SDS011;5971;49.646;8.568;2023-05-19T17:48:50;3.63;;;2.90;;
11827;SDS011;5971;49.646;8.568;2023-05-19T17:51:52;5.13;;;3.20;;
11827;SDS011;5971;49.646;8.568;2023-05-19T17:54:53;4.40;;;2.80;;
11827;SDS011;5971;49.646;8.568;2023-05-19T17:57:55;3.80;;;2.80;;
11827;SDS011;5971;49.646;8.568;2023-05-19T18:00:56;3.78;;;2.50;;
11827;SDS011;5971;49.646;8.568;2023-05-19T18:03:58;4.25;;;2.50;;
11827;SDS011;5971;49.646;8.568;2023-05-19T18:07:00;3.42;;;2.30;;
11827;SDS011;5971;49.646;8.568;2023-05-19T18:10:02;3.80;;;2.35;;
11827;SDS011;5971;49.646;8.568;2023-05-19T18:13:05;3.42;;;2.47;;
11827;SDS011;5971;49.646;8.568;2023-05-19T18:16:06;3.83;;;2.55;;
11827;SDS011;5971;49.646;8.568;2023-05-19T18:19:08;3.20;;;2.22;;
11827;SDS011;5971;49.646;8.568;2023-05-19T18:22:09;4.80;;;2.65;;
11827;SDS011;5971;49.646;8.568;2023-05-19T18:25:13;4.57;;;3.17;;
11827;SDS011;5971;49.646;8.568;2023-05-19T18:28:14;4.70;;;2.63;;
11827;SDS011;5971;49.646;8.568;2023-05-19T18:31:15;4.05;;;2.53;;
11827;SDS011;5971;49.646;8.568;2023-05-19T18:34:20;5.65;;;2.53;;
11827;SDS011;5971;49.646;8.568;2023-05-19T18:37:21;4.65;;;2.75;;
11827;SDS011;5971;49.646;8.568;2023-05-19T18:40:23;5.88;;;2.60;;
11827;SDS011;5971;49.646;8.568;2023-05-19T18:43:24;4.20;;;2.60;;
11827;SDS011;5971;49.646;8.568;2023-05-19T18:46:26;3.95;;;2.47;;
11827;SDS011;5971;49.646;8.568;2023-05-19T18:49:27;3.47;;;2.28;;
11827;SDS011;5971;49.646;8.568;2023-05-19T18:52:28;4.65;;;2.50;;
11827;SDS011;5971;49.646;8.568;2023-05-19T18:55:31;3.20;;;2.33;;